sensor_id;sensor_type;location;lat;lon;timestamp;temperature;humidity
65864;SHT30;52639;51.180;20.460;2023-03-01T00:00:35;-8.11;80.70
65864;SHT30;52639;51.180;20.460;2023-03-01T00:04:56;-8.26;81.13
65864;SHT30;52639;51.180;20.460;2023-03-01T00:08:59;-8.36;80.88
65864;SHT30;52639;51.180;20.460;2023-03-01T00:13:03;-8.49;81.22
65864;SHT30;52639;51.180;20.460;2023-03-01T00:17:06;-8.55;80.75
65864;SHT30;52639;51.180;20.460;2023-03-01T00:21:09;-8.56;81.09
65864;SHT30;52639;51.180;20.460;2023-03-01T00:25:12;-8.53;81.12
65864;SHT30;52639;51.180;20.460;2023-03-01T00:29:16;-8.66;80.36
65864;SHT30;52639;51.180;20.460;2023-03-01T00:33:19;-8.72;81.08
65864;SHT30;52639;51.180;20.460;2023-03-01T00:37:23;-8.73;82.25
65864;SHT30;52639;51.180;20.460;2023-03-01T00:41:26;-8.66;81.76
65864;SHT30;52639;51.180;20.460;2023-03-01T00:45:32;-8.85;80.88
65864;SHT30;52639;51.180;20.460;2023-03-01T00:49:35;-8.89;81.69
65864;SHT30;52639;51.180;20.460;2023-03-01T00:53:38;-8.97;80.96
65864;SHT30;52639;51.180;20.460;2023-03-01T00:57:42;-8.80;81.30
65864;SHT30;52639;51.180;20.460;2023-03-01T01:01:46;-8.79;81.07
65864;SHT30;52639;51.180;20.460;2023-03-01T01:05:49;-8.82;81.46
65864;SHT30;52639;51.180;20.460;2023-03-01T01:09:52;-8.57;81.68
65864;SHT30;52639;51.180;20.460;2023-03-01T01:13:55;-8.53;81.10
65864;SHT30;52639;51.180;20.460;2023-03-01T01:18:00;-8.65;80.55
65864;SHT30;52639;51.180;20.460;2023-03-01T01:22:03;-8.76;81.09
65864;SHT30;52639;51.180;20.460;2023-03-01T01:26:07;-8.87;81.11
65864;SHT30;52639;51.180;20.460;2023-03-01T01:30:11;-8.87;82.02
65864;SHT30;52639;51.180;20.460;2023-03-01T01:34:19;-8.89;80.70
65864;SHT30;52639;51.180;20.460;2023-03-01T01:38:22;-8.96;81.50
65864;SHT30;52639;51.180;20.460;2023-03-01T01:42:26;-9.11;81.03
65864;SHT30;52639;51.180;20.460;2023-03-01T01:46:30;-9.24;81.06
65864;SHT30;52639;51.180;20.460;2023-03-01T01:50:36;-9.41;81.32
65864;SHT30;52639;51.180;20.460;2023-03-01T01:54:45;-9.38;82.43
65864;SHT30;52639;51.180;20.460;2023-03-01T01:58:49;-9.44;81.99
65864;SHT30;52639;51.180;20.460;2023-03-01T02:02:56;-9.45;81.80
65864;SHT30;52639;51.180;20.460;2023-03-01T02:07:05;-9.35;82.15
65864;SHT30;52639;51.180;20.460;2023-03-01T02:11:10;-9.35;82.65
65864;SHT30;52639;51.180;20.460;2023-03-01T02:15:15;-9.28;83.06
65864;SHT30;52639;51.180;20.460;2023-03-01T02:19:28;-9.31;81.92
65864;SHT30;52639;51.180;20.460;2023-03-01T02:23:36;-9.38;81.79
65864;SHT30;52639;51.180;20.460;2023-03-01T02:27:45;-9.31;81.99
65864;SHT30;52639;51.180;20.460;2023-03-01T02:31:54;-9.30;81.39
65864;SHT30;52639;51.180;20.460;2023-03-01T02:36:00;-9.27;82.18
65864;SHT30;52639;51.180;20.460;2023-03-01T02:40:08;-9.27;81.12
65864;SHT30;52639;51.180;20.460;2023-03-01T02:44:13;-9.45;81.22
65864;SHT30;52639;51.180;20.460;2023-03-01T02:48:18;-9.56;81.33
65864;SHT30;52639;51.180;20.460;2023-03-01T02:52:40;-9.62;81.50
65864;SHT30;52639;51.180;20.460;2023-03-01T02:56:47;-9.66;82.01
65864;SHT30;52639;51.180;20.460;2023-03-01T03:00:51;-9.68;82.96
65864;SHT30;52639;51.180;20.460;2023-03-01T03:04:55;-9.74;82.09
65864;SHT30;52639;51.180;20.460;2023-03-01T03:08:58;-9.72;82.05
65864;SHT30;52639;51.180;20.460;2023-03-01T03:13:04;-9.79;82.16
65864;SHT30;52639;51.180;20.460;2023-03-01T03:17:07;-9.83;83.07
65864;SHT30;52639;51.180;20.460;2023-03-01T03:21:12;-9.64;82.68
65864;SHT30;52639;51.180;20.460;2023-03-01T03:25:16;-9.74;81.76
65864;SHT30;52639;51.180;20.460;2023-03-01T03:29:19;-9.91;81.92
65864;SHT30;52639;51.180;20.460;2023-03-01T03:33:22;-9.83;82.63
65864;SHT30;52639;51.180;20.460;2023-03-01T03:37:26;-9.88;83.96
65864;SHT30;52639;51.180;20.460;2023-03-01T03:41:47;-9.94;82.98
65864;SHT30;52639;51.180;20.460;2023-03-01T03:45:50;-10.07;83.05
65864;SHT30;52639;51.180;20.460;2023-03-01T03:49:55;-10.06;83.30
65864;SHT30;52639;51.180;20.460;2023-03-01T03:53:59;-9.82;82.64
65864;SHT30;52639;51.180;20.460;2023-03-01T03:58:02;-9.64;82.61
65864;SHT30;52639;51.180;20.460;2023-03-01T04:02:07;-9.68;82.27
65864;SHT30;52639;51.180;20.460;2023-03-01T04:06:10;-9.61;82.33
65864;SHT30;52639;51.180;20.460;2023-03-01T04:10:17;-9.66;82.20
65864;SHT30;52639;51.180;20.460;2023-03-01T04:14:20;-9.62;82.66
65864;SHT30;52639;51.180;20.460;2023-03-01T04:18:23;-9.68;81.95
65864;SHT30;52639;51.180;20.460;2023-03-01T04:22:27;-9.76;82.67
65864;SHT30;52639;51.180;20.460;2023-03-01T04:26:32;-9.79;82.20
65864;SHT30;52639;51.180;20.460;2023-03-01T04:30:35;-9.85;82.26
65864;SHT30;52639;51.180;20.460;2023-03-01T04:34:38;-9.95;82.63
65864;SHT30;52639;51.180;20.460;2023-03-01T04:38:41;-9.96;82.85
65864;SHT30;52639;51.180;20.460;2023-03-01T04:42:50;-10.09;82.12
65864;SHT30;52639;51.180;20.460;2023-03-01T04:46:52;-10.12;82.96
65864;SHT30;52639;51.180;20.460;2023-03-01T04:50:55;-9.95;82.99
65864;SHT30;52639;51.180;20.460;2023-03-01T04:54:59;-10.05;82.16
65864;SHT30;52639;51.180;20.460;2023-03-01T04:59:03;-10.17;82.39
65864;SHT30;52639;51.180;20.460;2023-03-01T05:03:08;-10.15;82.23
65864;SHT30;52639;51.180;20.460;2023-03-01T05:07:11;-10.25;82.20
65864;SHT30;52639;51.180;20.460;2023-03-01T05:11:20;-10.30;81.78
65864;SHT30;52639;51.180;20.460;2023-03-01T05:15:25;-10.16;82.23
65864;SHT30;52639;51.180;20.460;2023-03-01T05:19:29;-9.96;82.09
65864;SHT30;52639;51.180;20.460;2023-03-01T05:23:32;-10.09;82.33
65864;SHT30;52639;51.180;20.460;2023-03-01T05:27:35;-9.99;81.98
65864;SHT30;52639;51.180;20.460;2023-03-01T05:31:39;-9.98;81.75
65864;SHT30;52639;51.180;20.460;2023-03-01T05:35:44;-9.81;81.96
65864;SHT30;52639;51.180;20.460;2023-03-01T05:39:47;-9.83;81.51
65864;SHT30;52639;51.180;20.460;2023-03-01T05:43:51;-9.72;82.16
65864;SHT30;52639;51.180;20.460;2023-03-01T05:47:55;-9.62;82.02
65864;SHT30;52639;51.180;20.460;2023-03-01T05:51:59;-9.59;82.20
65864;SHT30;52639;51.180;20.460;2023-03-01T05:56:03;-9.42;82.58
65864;SHT30;52639;51.180;20.460;2023-03-01T06:00:07;-9.30;82.89
65864;SHT30;52639;51.180;20.460;2023-03-01T06:04:12;-9.18;83.07
65864;SHT30;52639;51.180;20.460;2023-03-01T06:08:15;-9.10;81.49
65864;SHT30;52639;51.180;20.460;2023-03-01T06:12:17;-9.00;81.87
65864;SHT30;52639;51.180;20.460;2023-03-01T06:16:20;-8.70;81.51
65864;SHT30;52639;51.180;20.460;2023-03-01T06:20:26;-8.14;80.97
65864;SHT30;52639;51.180;20.460;2023-03-01T06:24:29;-7.20;80.90
65864;SHT30;52639;51.180;20.460;2023-03-01T06:28:32;-6.30;81.80
65864;SHT30;52639;51.180;20.460;2023-03-01T06:32:35;-5.59;80.58
65864;SHT30;52639;51.180;20.460;2023-03-01T06:36:40;-4.40;76.55
65864;SHT30;52639;51.180;20.460;2023-03-01T06:40:43;-3.44;74.98
65864;SHT30;52639;51.180;20.460;2023-03-01T06:44:45;-3.27;76.12
65864;SHT30;52639;51.180;20.460;2023-03-01T06:48:48;-1.43;71.46
65864;SHT30;52639;51.180;20.460;2023-03-01T06:52:57;-0.10;70.60
65864;SHT30;52639;51.180;20.460;2023-03-01T06:57:00;0.64;66.46
65864;SHT30;52639;51.180;20.460;2023-03-01T07:01:05;2.22;69.47
65864;SHT30;52639;51.180;20.460;2023-03-01T07:05:09;4.30;62.42
65864;SHT30;52639;51.180;20.460;2023-03-01T07:09:13;6.12;65.50
65864;SHT30;52639;51.180;20.460;2023-03-01T07:13:21;7.56;61.50
65864;SHT30;52639;51.180;20.460;2023-03-01T07:17:24;8.20;58.50
65864;SHT30;52639;51.180;20.460;2023-03-01T07:21:26;8.45;58.88
65864;SHT30;52639;51.180;20.460;2023-03-01T07:25:31;8.38;59.96
65864;SHT30;52639;51.180;20.460;2023-03-01T07:29:34;9.43;58.42
65864;SHT30;52639;51.180;20.460;2023-03-01T07:33:37;10.24;58.11
65864;SHT30;52639;51.180;20.460;2023-03-01T07:37:41;11.71;58.96
65864;SHT30;52639;51.180;20.460;2023-03-01T07:41:45;12.53;58.83
65864;SHT30;52639;51.180;20.460;2023-03-01T07:45:48;12.01;57.21
65864;SHT30;52639;51.180;20.460;2023-03-01T07:49:53;11.94;62.26
65864;SHT30;52639;51.180;20.460;2023-03-01T07:53:56;13.13;61.45
65864;SHT30;52639;51.180;20.460;2023-03-01T07:58:00;13.06;59.02
65864;SHT30;52639;51.180;20.460;2023-03-01T08:02:03;13.24;59.67
65864;SHT30;52639;51.180;20.460;2023-03-01T08:06:08;13.22;59.60
65864;SHT30;52639;51.180;20.460;2023-03-01T08:10:11;14.09;53.92
65864;SHT30;52639;51.180;20.460;2023-03-01T08:14:16;13.87;58.71
65864;SHT30;52639;51.180;20.460;2023-03-01T08:18:19;13.70;57.37
65864;SHT30;52639;51.180;20.460;2023-03-01T08:22:24;13.67;56.97
65864;SHT30;52639;51.180;20.460;2023-03-01T08:26:28;14.00;56.98
65864;SHT30;52639;51.180;20.460;2023-03-01T08:30:34;14.14;54.65
65864;SHT30;52639;51.180;20.460;2023-03-01T08:34:37;13.43;55.52
65864;SHT30;52639;51.180;20.460;2023-03-01T08:38:42;14.42;53.02
65864;SHT30;52639;51.180;20.460;2023-03-01T08:42:48;15.36;50.37
65864;SHT30;52639;51.180;20.460;2023-03-01T08:46:52;15.44;50.30
65864;SHT30;52639;51.180;20.460;2023-03-01T08:50:57;15.40;49.84
65864;SHT30;52639;51.180;20.460;2023-03-01T08:55:00;15.40;47.20
65864;SHT30;52639;51.180;20.460;2023-03-01T08:59:04;15.51;48.37
65864;SHT30;52639;51.180;20.460;2023-03-01T09:03:09;15.13;48.80
65864;SHT30;52639;51.180;20.460;2023-03-01T09:07:12;15.07;48.18
65864;SHT30;52639;51.180;20.460;2023-03-01T09:11:17;14.86;46.71
65864;SHT30;52639;51.180;20.460;2023-03-01T09:15:21;15.30;47.80
65864;SHT30;52639;51.180;20.460;2023-03-01T09:19:26;15.26;47.59
65864;SHT30;52639;51.180;20.460;2023-03-01T09:23:29;16.87;44.32
65864;SHT30;52639;51.180;20.460;2023-03-01T09:27:32;16.59;45.63
65864;SHT30;52639;51.180;20.460;2023-03-01T09:31:36;15.90;45.30
65864;SHT30;52639;51.180;20.460;2023-03-01T09:35:41;16.19;44.42
65864;SHT30;52639;51.180;20.460;2023-03-01T09:39:49;16.38;43.22
65864;SHT30;52639;51.180;20.460;2023-03-01T09:43:59;16.90;42.57
65864;SHT30;52639;51.180;20.460;2023-03-01T09:48:06;16.38;44.48
65864;SHT30;52639;51.180;20.460;2023-03-01T09:52:25;15.84;43.11
65864;SHT30;52639;51.180;20.460;2023-03-01T09:56:34;16.08;42.39
65864;SHT30;52639;51.180;20.460;2023-03-01T10:00:42;15.77;42.57
65864;SHT30;52639;51.180;20.460;2023-03-01T10:04:47;15.07;42.83
65864;SHT30;52639;51.180;20.460;2023-03-01T10:08:55;16.02;41.00
65864;SHT30;52639;51.180;20.460;2023-03-01T10:13:02;15.57;40.88
65864;SHT30;52639;51.180;20.460;2023-03-01T10:17:23;16.00;41.07
65864;SHT30;52639;51.180;20.460;2023-03-01T10:21:28;16.43;41.09
65864;SHT30;52639;51.180;20.460;2023-03-01T10:25:45;15.08;42.96
65864;SHT30;52639;51.180;20.460;2023-03-01T10:29:56;9.91;50.34
65864;SHT30;52639;51.180;20.460;2023-03-01T10:34:01;7.25;52.17
65864;SHT30;52639;51.180;20.460;2023-03-01T10:38:06;6.74;52.22
65864;SHT30;52639;51.180;20.460;2023-03-01T10:42:29;6.73;52.28
65864;SHT30;52639;51.180;20.460;2023-03-01T10:46:34;6.43;52.10
65864;SHT30;52639;51.180;20.460;2023-03-01T10:50:38;6.27;50.93
65864;SHT30;52639;51.180;20.460;2023-03-01T10:54:52;5.81;52.42
65864;SHT30;52639;51.180;20.460;2023-03-01T10:59:02;5.78;52.17
65864;SHT30;52639;51.180;20.460;2023-03-01T11:03:11;5.73;51.42
65864;SHT30;52639;51.180;20.460;2023-03-01T11:07:14;5.99;51.04
65864;SHT30;52639;51.180;20.460;2023-03-01T11:11:23;6.12;50.74
65864;SHT30;52639;51.180;20.460;2023-03-01T11:15:29;5.49;50.05
65864;SHT30;52639;51.180;20.460;2023-03-01T11:19:32;5.66;50.25
65864;SHT30;52639;51.180;20.460;2023-03-01T11:23:37;5.75;50.25
65864;SHT30;52639;51.180;20.460;2023-03-01T11:27:44;5.62;50.30
65864;SHT30;52639;51.180;20.460;2023-03-01T11:31:50;5.63;50.03
65864;SHT30;52639;51.180;20.460;2023-03-01T11:35:57;5.71;49.91
65864;SHT30;52639;51.180;20.460;2023-03-01T11:40:11;5.61;48.00
65864;SHT30;52639;51.180;20.460;2023-03-01T11:44:19;5.68;49.36
65864;SHT30;52639;51.180;20.460;2023-03-01T11:48:47;5.35;50.79
65864;SHT30;52639;51.180;20.460;2023-03-01T11:53:13;5.10;51.14
65864;SHT30;52639;51.180;20.460;2023-03-01T11:57:36;5.37;50.02
65864;SHT30;52639;51.180;20.460;2023-03-01T12:01:53;5.41;50.56
65864;SHT30;52639;51.180;20.460;2023-03-01T12:06:19;5.24;51.55
65864;SHT30;52639;51.180;20.460;2023-03-01T12:10:27;5.32;50.96
65864;SHT30;52639;51.180;20.460;2023-03-01T12:14:52;5.24;51.78
65864;SHT30;52639;51.180;20.460;2023-03-01T12:19:09;5.44;51.10
65864;SHT30;52639;51.180;20.460;2023-03-01T12:23:31;5.37;50.18
65864;SHT30;52639;51.180;20.460;2023-03-01T12:27:56;5.44;51.16
65864;SHT30;52639;51.180;20.460;2023-03-01T12:32:19;5.62;51.19
65864;SHT30;52639;51.180;20.460;2023-03-01T12:36:33;5.44;50.67
65864;SHT30;52639;51.180;20.460;2023-03-01T12:41:05;5.45;51.21
65864;SHT30;52639;51.180;20.460;2023-03-01T12:49:46;5.25;50.62
65864;SHT30;52639;51.180;20.460;2023-03-01T12:53:52;5.41;50.16
65864;SHT30;52639;51.180;20.460;2023-03-01T12:58:04;5.32;51.02
65864;SHT30;52639;51.180;20.460;2023-03-01T13:02:16;5.30;50.82
65864;SHT30;52639;51.180;20.460;2023-03-01T13:06:32;5.27;51.84
65864;SHT30;52639;51.180;20.460;2023-03-01T13:10:43;5.17;50.34
65864;SHT30;52639;51.180;20.460;2023-03-01T13:14:53;5.17;51.41
65864;SHT30;52639;51.180;20.460;2023-03-01T13:19:15;5.11;51.87
65864;SHT30;52639;51.180;20.460;2023-03-01T13:23:26;5.20;52.42
65864;SHT30;52639;51.180;20.460;2023-03-01T13:27:30;5.18;52.05
65864;SHT30;52639;51.180;20.460;2023-03-01T13:36:08;5.10;52.30
65864;SHT30;52639;51.180;20.460;2023-03-01T13:44:57;5.08;52.47
65864;SHT30;52639;51.180;20.460;2023-03-01T13:49:00;5.01;52.10
65864;SHT30;52639;51.180;20.460;2023-03-01T13:53:06;4.94;52.38
65864;SHT30;52639;51.180;20.460;2023-03-01T13:57:18;4.85;52.91
65864;SHT30;52639;51.180;20.460;2023-03-01T14:01:27;4.95;51.52
65864;SHT30;52639;51.180;20.460;2023-03-01T14:05:31;4.79;52.32
65864;SHT30;52639;51.180;20.460;2023-03-01T14:09:39;4.84;51.87
65864;SHT30;52639;51.180;20.460;2023-03-01T14:13:55;4.81;52.79
65864;SHT30;52639;51.180;20.460;2023-03-01T14:18:04;4.72;53.28
65864;SHT30;52639;51.180;20.460;2023-03-01T14:22:17;4.74;53.03
65864;SHT30;52639;51.180;20.460;2023-03-01T14:26:23;4.67;53.92
65864;SHT30;52639;51.180;20.460;2023-03-01T14:30:30;4.72;53.52
65864;SHT30;52639;51.180;20.460;2023-03-01T14:34:34;4.67;54.26
65864;SHT30;52639;51.180;20.460;2023-03-01T14:38:38;4.69;53.91
65864;SHT30;52639;51.180;20.460;2023-03-01T14:42:42;4.60;54.56
65864;SHT30;52639;51.180;20.460;2023-03-01T14:46:46;4.42;54.87
65864;SHT30;52639;51.180;20.460;2023-03-01T14:50:50;4.38;54.80
65864;SHT30;52639;51.180;20.460;2023-03-01T14:54:54;4.22;55.35
65864;SHT30;52639;51.180;20.460;2023-03-01T14:58:59;4.09;55.70
65864;SHT30;52639;51.180;20.460;2023-03-01T15:03:08;3.98;55.66
65864;SHT30;52639;51.180;20.460;2023-03-01T15:07:14;3.82;56.55
65864;SHT30;52639;51.180;20.460;2023-03-01T15:11:20;3.82;56.17
65864;SHT30;52639;51.180;20.460;2023-03-01T15:15:36;3.57;57.02
65864;SHT30;52639;51.180;20.460;2023-03-01T15:19:40;3.55;56.55
65864;SHT30;52639;51.180;20.460;2023-03-01T15:23:49;3.31;57.55
65864;SHT30;52639;51.180;20.460;2023-03-01T15:27:54;3.23;57.13
65864;SHT30;52639;51.180;20.460;2023-03-01T15:32:00;3.24;57.28
65864;SHT30;52639;51.180;20.460;2023-03-01T15:36:39;3.20;57.34
65864;SHT30;52639;51.180;20.460;2023-03-01T15:40:49;2.77;58.00
65864;SHT30;52639;51.180;20.460;2023-03-01T15:45:08;2.55;58.55
65864;SHT30;52639;51.180;20.460;2023-03-01T15:49:26;2.50;58.57
65864;SHT30;52639;51.180;20.460;2023-03-01T15:53:31;2.25;58.85
65864;SHT30;52639;51.180;20.460;2023-03-01T15:57:35;1.98;59.82
65864;SHT30;52639;51.180;20.460;2023-03-01T16:01:38;1.63;60.36
65864;SHT30;52639;51.180;20.460;2023-03-01T16:05:43;1.35;60.70
65864;SHT30;52639;51.180;20.460;2023-03-01T16:09:46;1.02;61.33
65864;SHT30;52639;51.180;20.460;2023-03-01T16:13:49;0.61;63.38
65864;SHT30;52639;51.180;20.460;2023-03-01T16:17:52;0.21;64.59
65864;SHT30;52639;51.180;20.460;2023-03-01T16:22:00;-0.13;64.17
65864;SHT30;52639;51.180;20.460;2023-03-01T16:26:03;-0.56;65.29
65864;SHT30;52639;51.180;20.460;2023-03-01T16:30:07;-0.82;65.04
65864;SHT30;52639;51.180;20.460;2023-03-01T16:34:11;-0.99;64.99
65864;SHT30;52639;51.180;20.460;2023-03-01T16:38:16;-1.25;65.52
65864;SHT30;52639;51.180;20.460;2023-03-01T16:42:19;-1.49;65.51
65864;SHT30;52639;51.180;20.460;2023-03-01T16:46:25;-1.78;66.04
65864;SHT30;52639;51.180;20.460;2023-03-01T16:50:29;-1.90;66.32
65864;SHT30;52639;51.180;20.460;2023-03-01T16:54:34;-2.00;66.80
65864;SHT30;52639;51.180;20.460;2023-03-01T16:58:39;-2.17;66.34
65864;SHT30;52639;51.180;20.460;2023-03-01T17:02:45;-2.27;66.86
65864;SHT30;52639;51.180;20.460;2023-03-01T17:06:48;-2.48;67.17
65864;SHT30;52639;51.180;20.460;2023-03-01T17:11:02;-2.56;67.79
65864;SHT30;52639;51.180;20.460;2023-03-01T17:15:07;-2.52;67.41
65864;SHT30;52639;51.180;20.460;2023-03-01T17:19:11;-2.82;67.20
65864;SHT30;52639;51.180;20.460;2023-03-01T17:23:19;-2.92;69.30
65864;SHT30;52639;51.180;20.460;2023-03-01T17:27:26;-2.97;68.08
65864;SHT30;52639;51.180;20.460;2023-03-01T17:31:32;-3.10;67.86
65864;SHT30;52639;51.180;20.460;2023-03-01T17:35:36;-3.27;67.91
65864;SHT30;52639;51.180;20.460;2023-03-01T17:39:40;-3.48;68.39
65864;SHT30;52639;51.180;20.460;2023-03-01T17:43:45;-3.55;69.22
65864;SHT30;52639;51.180;20.460;2023-03-01T17:47:49;-3.57;68.82
65864;SHT30;52639;51.180;20.460;2023-03-01T17:51:52;-3.71;68.90
65864;SHT30;52639;51.180;20.460;2023-03-01T17:56:01;-3.65;71.33
65864;SHT30;52639;51.180;20.460;2023-03-01T18:00:10;-3.62;69.31
65864;SHT30;52639;51.180;20.460;2023-03-01T18:04:14;-3.52;69.28
65864;SHT30;52639;51.180;20.460;2023-03-01T18:08:20;-3.55;69.16
65864;SHT30;52639;51.180;20.460;2023-03-01T18:12:24;-3.85;69.06
65864;SHT30;52639;51.180;20.460;2023-03-01T18:16:31;-3.91;69.54
65864;SHT30;52639;51.180;20.460;2023-03-01T18:20:36;-3.64;70.22
65864;SHT30;52639;51.180;20.460;2023-03-01T18:24:43;-3.70;69.84
65864;SHT30;52639;51.180;20.460;2023-03-01T18:28:48;-3.67;70.12
65864;SHT30;52639;51.180;20.460;2023-03-01T18:32:56;-3.75;71.56
65864;SHT30;52639;51.180;20.460;2023-03-01T18:37:00;-3.82;71.37
65864;SHT30;52639;51.180;20.460;2023-03-01T18:41:04;-3.84;70.64
65864;SHT30;52639;51.180;20.460;2023-03-01T18:45:10;-4.08;70.42
65864;SHT30;52639;51.180;20.460;2023-03-01T18:49:18;-4.16;70.62
65864;SHT30;52639;51.180;20.460;2023-03-01T18:53:23;-4.28;70.91
65864;SHT30;52639;51.180;20.460;2023-03-01T18:57:31;-4.32;71.56
65864;SHT30;52639;51.180;20.460;2023-03-01T19:01:36;-4.26;71.54
65864;SHT30;52639;51.180;20.460;2023-03-01T19:05:44;-4.37;71.82
65864;SHT30;52639;51.180;20.460;2023-03-01T19:09:49;-4.39;72.66
65864;SHT30;52639;51.180;20.460;2023-03-01T19:13:56;-4.37;71.89
65864;SHT30;52639;51.180;20.460;2023-03-01T19:18:04;-4.49;71.60
65864;SHT30;52639;51.180;20.460;2023-03-01T19:22:12;-4.42;71.81
65864;SHT30;52639;51.180;20.460;2023-03-01T19:26:17;-4.26;72.13
65864;SHT30;52639;51.180;20.460;2023-03-01T19:30:23;-4.20;72.21
65864;SHT30;52639;51.180;20.460;2023-03-01T19:34:28;-4.39;72.47
65864;SHT30;52639;51.180;20.460;2023-03-01T19:38:43;-4.50;73.27
65864;SHT30;52639;51.180;20.460;2023-03-01T19:42:48;-4.46;75.27
65864;SHT30;52639;51.180;20.460;2023-03-01T19:46:56;-4.54;73.81
65864;SHT30;52639;51.180;20.460;2023-03-01T19:51:02;-4.71;73.11
65864;SHT30;52639;51.180;20.460;2023-03-01T19:55:16;-4.81;72.62
65864;SHT30;52639;51.180;20.460;2023-03-01T19:59:20;-4.73;73.84
65864;SHT30;52639;51.180;20.460;2023-03-01T20:03:31;-4.74;73.91
65864;SHT30;52639;51.180;20.460;2023-03-01T20:07:36;-4.61;73.92
65864;SHT30;52639;51.180;20.460;2023-03-01T20:11:43;-4.53;74.53
65864;SHT30;52639;51.180;20.460;2023-03-01T20:15:55;-4.64;73.79
65864;SHT30;52639;51.180;20.460;2023-03-01T20:20:26;-4.76;75.05
65864;SHT30;52639;51.180;20.460;2023-03-01T20:24:32;-4.84;74.08
65864;SHT30;52639;51.180;20.460;2023-03-01T20:28:39;-4.83;76.37
65864;SHT30;52639;51.180;20.460;2023-03-01T20:32:46;-4.74;75.12
65864;SHT30;52639;51.180;20.460;2023-03-01T20:36:56;-4.80;74.91
65864;SHT30;52639;51.180;20.460;2023-03-01T20:41:02;-4.79;75.40
65864;SHT30;52639;51.180;20.460;2023-03-01T20:45:14;-4.85;75.09
65864;SHT30;52639;51.180;20.460;2023-03-01T20:49:23;-4.85;76.13
65864;SHT30;52639;51.180;20.460;2023-03-01T20:53:54;-4.97;73.22
65864;SHT30;52639;51.180;20.460;2023-03-01T20:57:59;-5.18;75.15
65864;SHT30;52639;51.180;20.460;2023-03-01T21:02:05;-5.22;75.84
65864;SHT30;52639;51.180;20.460;2023-03-01T21:06:09;-5.31;75.32
65864;SHT30;52639;51.180;20.460;2023-03-01T21:10:15;-5.24;74.98
65864;SHT30;52639;51.180;20.460;2023-03-01T21:14:19;-5.24;74.83
65864;SHT30;52639;51.180;20.460;2023-03-01T21:18:27;-5.39;74.69
65864;SHT30;52639;51.180;20.460;2023-03-01T21:22:30;-5.40;79.63
65864;SHT30;52639;51.180;20.460;2023-03-01T21:26:35;-5.45;79.54
65864;SHT30;52639;51.180;20.460;2023-03-01T21:30:39;-5.54;79.57
65864;SHT30;52639;51.180;20.460;2023-03-01T21:34:45;-5.62;77.71
65864;SHT30;52639;51.180;20.460;2023-03-01T21:38:49;-5.60;77.69
65864;SHT30;52639;51.180;20.460;2023-03-01T21:42:52;-5.40;76.98
65864;SHT30;52639;51.180;20.460;2023-03-01T21:46:55;-5.31;77.09
65864;SHT30;52639;51.180;20.460;2023-03-01T21:51:01;-5.35;76.80
65864;SHT30;52639;51.180;20.460;2023-03-01T21:55:05;-5.54;76.58
65864;SHT30;52639;51.180;20.460;2023-03-01T21:59:12;-5.75;77.23
65864;SHT30;52639;51.180;20.460;2023-03-01T22:03:15;-5.68;77.79
65864;SHT30;52639;51.180;20.460;2023-03-01T22:07:19;-5.70;77.49
65864;SHT30;52639;51.180;20.460;2023-03-01T22:11:22;-5.70;77.18
65864;SHT30;52639;51.180;20.460;2023-03-01T22:15:26;-5.94;76.77
65864;SHT30;52639;51.180;20.460;2023-03-01T22:19:29;-5.90;77.64
65864;SHT30;52639;51.180;20.460;2023-03-01T22:23:35;-5.87;76.12
65864;SHT30;52639;51.180;20.460;2023-03-01T22:27:37;-5.86;76.92
65864;SHT30;52639;51.180;20.460;2023-03-01T22:31:41;-5.90;78.81
65864;SHT30;52639;51.180;20.460;2023-03-01T22:35:44;-6.00;77.38
65864;SHT30;52639;51.180;20.460;2023-03-01T22:39:48;-5.94;79.15
65864;SHT30;52639;51.180;20.460;2023-03-01T22:43:51;-6.00;78.57
65864;SHT30;52639;51.180;20.460;2023-03-01T22:47:54;-6.04;77.89
65864;SHT30;52639;51.180;20.460;2023-03-01T22:51:58;-6.09;78.38
65864;SHT30;52639;51.180;20.460;2023-03-01T22:56:14;-6.10;77.09
65864;SHT30;52639;51.180;20.460;2023-03-01T23:00:18;-6.09;77.52
65864;SHT30;52639;51.180;20.460;2023-03-01T23:04:22;-6.18;78.53
65864;SHT30;52639;51.180;20.460;2023-03-01T23:08:25;-6.28;79.05
65864;SHT30;52639;51.180;20.460;2023-03-01T23:12:30;-6.23;78.31
65864;SHT30;52639;51.180;20.460;2023-03-01T23:16:33;-6.24;78.86
65864;SHT30;52639;51.180;20.460;2023-03-01T23:20:36;-6.30;78.21
65864;SHT30;52639;51.180;20.460;2023-03-01T23:24:39;-6.13;78.20
65864;SHT30;52639;51.180;20.460;2023-03-01T23:28:44;-6.11;78.41
65864;SHT30;52639;51.180;20.460;2023-03-01T23:32:49;-6.13;78.81
65864;SHT30;52639;51.180;20.460;2023-03-01T23:36:54;-6.38;78.19
65864;SHT30;52639;51.180;20.460;2023-03-01T23:40:58;-6.44;80.13
65864;SHT30;52639;51.180;20.460;2023-03-01T23:45:03;-6.42;79.05
65864;SHT30;52639;51.180;20.460;2023-03-01T23:49:10;-6.44;78.40
65864;SHT30;52639;51.180;20.460;2023-03-01T23:53:16;-6.40;78.63
65864;SHT30;52639;51.180;20.460;2023-03-01T23:57:19;-6.48;78.31
